Time;durP1;ratioP1;P1;durP2;ratioP2;P2;SDS_P1;SDS_P2;PMS_P1;PMS_P2;Temp;Humidity;BMP_temperature;BMP_pressure;BME280_temperature;BME280_humidity;BME280_pressure;Samples;Min_cycle;Max_cycle;Signal;HPM_P1;HPM_P2
2022/03/21 00:00:49;;;;;;;116.47;61.42;;;4.20;99.90;;;;;;4995517;28;20056;-94
2022/03/21 00:03:18;;;;;;;105.60;58.75;;;4.30;99.90;;;;;;5011776;28;20054;-90
2022/03/21 00:05:45;;;;;;;103.93;58.05;;;4.40;99.90;;;;;;4995185;28;20096;-94
2022/03/21 00:08:11;;;;;;;106.07;60.58;;;4.40;99.90;;;;;;4995184;28;20058;-94
2022/03/21 00:10:38;;;;;;;110.22;59.83;;;4.40;99.90;;;;;;4995115;28;20050;-93
2022/03/21 00:13:08;;;;;;;112.80;63.05;;;4.40;99.90;;;;;;4995276;28;20053;-95
2022/03/21 00:15:34;;;;;;;109.30;60.53;;;4.50;99.90;;;;;;5011366;28;20048;-95
2022/03/21 00:18:03;;;;;;;100.13;57.05;;;4.50;99.90;;;;;;4979012;28;20519;-95
2022/03/21 00:20:30;;;;;;;109.45;59.88;;;4.50;99.90;;;;;;5032963;28;20056;-95
2022/03/21 00:22:57;;;;;;;109.88;60.80;;;4.50;99.90;;;;;;5058485;28;20052;-95
2022/03/21 00:25:22;;;;;;;116.82;62.25;;;4.50;99.90;;;;;;5059018;28;20051;-95
2022/03/21 00:27:48;;;;;;;113.13;61.47;;;4.40;99.90;;;;;;5091604;28;20048;-95
2022/03/21 00:30:15;;;;;;;106.40;60.92;;;4.50;99.90;;;;;;5076076;28;20134;-95
2022/03/21 00:32:41;;;;;;;94.63;54.58;;;4.50;99.90;;;;;;5079400;28;20044;-95
2022/03/21 00:35:09;;;;;;;96.65;57.70;;;4.40;99.90;;;;;;5062362;28;20051;-93
2022/03/21 00:37:37;;;;;;;112.32;61.05;;;4.40;99.90;;;;;;5062380;28;20044;-95
2022/03/21 00:40:06;;;;;;;110.35;61.88;;;4.40;99.90;;;;;;5062631;28;20055;-94
2022/03/21 00:42:34;;;;;;;110.80;60.63;;;4.40;99.90;;;;;;5079159;28;20047;-95
2022/03/21 00:45:02;;;;;;;111.15;59.42;;;4.60;99.90;;;;;;5081983;28;20052;-95
2022/03/21 00:47:28;;;;;;;102.32;57.83;;;4.40;99.90;;;;;;5099471;28;20415;-95
2022/03/21 00:49:54;;;;;;;102.78;59.00;;;4.40;99.90;;;;;;5099408;28;20035;-94
2022/03/21 00:52:20;;;;;;;110.78;59.90;;;4.50;99.90;;;;;;5098644;28;20078;-95
2022/03/21 00:54:46;;;;;;;97.47;56.47;;;4.50;99.90;;;;;;5117124;28;20067;-95
2022/03/21 00:57:11;;;;;;;111.13;60.53;;;4.50;99.90;;;;;;5082362;28;20082;-91
2022/03/21 00:59:37;;;;;;;92.88;55.88;;;4.50;99.90;;;;;;5082465;28;20485;-94
2022/03/21 01:02:03;;;;;;;104.72;58.72;;;4.50;99.90;;;;;;5081496;28;20390;-96
2022/03/21 01:04:28;;;;;;;107.43;60.10;;;4.50;99.90;;;;;;5099319;28;20469;-94
2022/03/21 01:06:54;;;;;;;98.55;56.70;;;4.60;99.90;;;;;;5082415;28;20048;-96
2022/03/21 01:09:20;;;;;;;85.15;51.88;;;4.50;99.90;;;;;;5098976;28;20058;-94
2022/03/21 01:11:46;;;;;;;99.25;56.70;;;4.40;99.90;;;;;;5082319;28;20051;-94
2022/03/21 01:14:12;;;;;;;94.75;54.75;;;4.50;99.90;;;;;;5082117;28;20043;-95
2022/03/21 01:16:38;;;;;;;105.03;58.63;;;4.50;99.90;;;;;;5098673;28;20054;-95
2022/03/21 01:19:05;;;;;;;102.13;57.53;;;4.50;99.90;;;;;;5098325;28;20504;-95
2022/03/21 01:21:31;;;;;;;103.35;57.35;;;4.50;99.90;;;;;;5098652;28;20112;-94
2022/03/21 01:23:57;;;;;;;100.68;56.30;;;4.50;99.90;;;;;;5081763;28;20047;-95
2022/03/21 01:26:22;;;;;;;96.72;55.08;;;4.40;99.90;;;;;;5098833;28;20058;-95
2022/03/21 01:28:48;;;;;;;98.25;55.03;;;4.40;99.90;;;;;;5098651;28;20103;-95
2022/03/21 01:31:14;;;;;;;98.75;53.78;;;4.30;99.90;;;;;;5098680;28;20443;-95
2022/03/21 01:33:41;;;;;;;100.65;54.67;;;4.20;99.90;;;;;;5098644;28;20370;-95
2022/03/21 01:36:07;;;;;;;91.53;51.85;;;4.10;99.90;;;;;;5098306;28;20074;-94
2022/03/21 01:38:34;;;;;;;99.55;55.30;;;4.20;99.90;;;;;;5081178;28;20134;-94
2022/03/21 01:41:00;;;;;;;99.43;55.17;;;4.20;99.90;;;;;;5098545;28;20035;-94
2022/03/21 01:43:26;;;;;;;98.65;52.85;;;4.10;99.90;;;;;;5080660;28;20059;-94
2022/03/21 01:45:51;;;;;;;95.60;53.70;;;4.00;99.90;;;;;;5081598;28;20450;-94
2022/03/21 01:48:17;;;;;;;100.72;52.58;;;3.90;99.90;;;;;;5098635;28;20108;-95
2022/03/21 01:50:44;;;;;;;96.60;53.13;;;3.80;99.90;;;;;;5115973;28;20046;-94
2022/03/21 01:55:56;;;;;;;105.88;52.70;;;3.60;99.90;;;;;;5097587;28;20059;-94
2022/03/21 01:58:24;;;;;;;98.13;51.00;;;3.80;99.90;;;;;;5115928;28;20043;-95
2022/03/21 02:00:51;;;;;;;102.38;52.38;;;3.30;99.90;;;;;;5097946;28;20051;-94
2022/03/21 02:03:21;;;;;;;108.05;54.20;;;3.30;99.90;;;;;;5080457;28;20111;-94
2022/03/21 02:05:47;;;;;;;94.60;49.17;;;3.20;99.90;;;;;;5081088;28;20069;-95
2022/03/21 02:08:14;;;;;;;112.93;51.13;;;3.10;99.90;;;;;;5098551;28;20325;-94
2022/03/21 02:10:42;;;;;;;105.57;51.80;;;3.10;99.90;;;;;;5098061;28;20043;-91
2022/03/21 02:13:09;;;;;;;97.20;48.65;;;3.10;99.90;;;;;;5097903;28;20047;-95
2022/03/21 02:15:35;;;;;;;95.88;47.25;;;3.00;99.90;;;;;;5080552;28;20047;-95
2022/03/21 02:18:03;;;;;;;104.57;50.58;;;3.00;99.90;;;;;;5080853;28;20059;-94
2022/03/21 02:20:35;;;;;;;106.47;48.90;;;3.00;99.90;;;;;;5097338;28;20492;-93
2022/03/21 02:23:12;;;;;;;93.10;45.90;;;3.00;99.90;;;;;;5080416;28;20055;-94
2022/03/21 02:25:43;;;;;;;96.53;48.22;;;3.00;99.90;;;;;;5097746;28;20553;-95
2022/03/21 02:28:12;;;;;;;98.63;45.78;;;3.00;99.90;;;;;;5097425;28;20365;-93
2022/03/21 02:30:58;;;;;;;94.78;45.25;;;3.00;99.90;;;;;;5097485;28;20389;-94
2022/03/21 02:33:24;;;;;;;106.28;47.92;;;3.00;99.90;;;;;;5097142;28;20090;-93
2022/03/21 02:35:50;;;;;;;95.07;46.03;;;2.90;99.90;;;;;;5080459;28;20039;-94
2022/03/21 02:38:18;;;;;;;87.20;43.40;;;2.90;99.90;;;;;;5080603;28;20051;-93
2022/03/21 02:40:43;;;;;;;97.80;43.70;;;2.90;99.90;;;;;;5080176;28;20040;-95
2022/03/21 02:43:12;;;;;;;84.20;42.65;;;2.90;99.90;;;;;;5097232;28;20054;-94
2022/03/21 02:45:38;;;;;;;90.72;42.08;;;3.00;99.90;;;;;;5097294;28;20142;-94
2022/03/21 02:48:04;;;;;;;86.22;42.72;;;3.00;99.90;;;;;;5079602;28;20467;-95
2022/03/21 02:50:43;;;;;;;94.63;43.65;;;3.00;99.90;;;;;;5079559;28;20438;-94
2022/03/21 02:53:10;;;;;;;92.53;44.13;;;3.30;99.90;;;;;;5079819;28;20066;-93
2022/03/21 02:55:36;;;;;;;85.55;41.05;;;2.90;99.90;;;;;;5096877;28;20048;-95
2022/03/21 02:58:02;;;;;;;94.35;42.45;;;2.90;99.90;;;;;;5096961;28;20560;-94
2022/03/21 03:00:29;;;;;;;86.63;41.42;;;2.90;99.90;;;;;;5079710;28;20050;-95
2022/03/21 03:02:55;;;;;;;106.32;42.17;;;2.90;99.90;;;;;;5080043;28;20050;-94
2022/03/21 03:05:20;;;;;;;83.38;40.10;;;2.90;99.90;;;;;;5079765;28;20119;-94
2022/03/21 03:07:46;;;;;;;88.22;40.42;;;2.80;99.90;;;;;;5096824;28;20400;-93
2022/03/21 03:10:12;;;;;;;90.13;38.83;;;2.70;99.90;;;;;;5114484;28;20036;-95
2022/03/21 03:12:37;;;;;;;85.38;39.72;;;2.70;99.90;;;;;;5079576;28;20105;-94
2022/03/21 03:15:04;;;;;;;83.93;38.53;;;2.60;99.90;;;;;;5096117;28;20046;-94
2022/03/21 03:17:29;;;;;;;79.93;38.42;;;2.60;99.90;;;;;;5096574;28;20051;-95
2022/03/21 03:19:55;;;;;;;79.68;38.55;;;2.50;99.90;;;;;;5079455;28;20059;-94
2022/03/21 03:22:23;;;;;;;87.90;39.30;;;2.60;99.90;;;;;;5079472;28;20443;-94
2022/03/21 03:24:50;;;;;;;81.07;37.55;;;2.70;99.90;;;;;;5096288;28;20035;-93
2022/03/21 03:27:16;;;;;;;83.53;37.53;;;2.60;99.90;;;;;;5096449;28;20044;-94
2022/03/21 03:29:41;;;;;;;75.05;33.70;;;2.50;99.90;;;;;;5079496;28;20043;-94
2022/03/21 03:32:08;;;;;;;68.38;34.28;;;2.40;99.90;;;;;;5078689;28;20138;-94
2022/03/21 03:34:35;;;;;;;62.65;32.25;;;2.30;99.90;;;;;;5096512;28;20054;-93
2022/03/21 03:37:01;;;;;;;66.70;32.42;;;2.30;99.90;;;;;;5079437;28;20104;-94
2022/03/21 03:39:28;;;;;;;64.93;32.25;;;2.20;99.90;;;;;;5079419;28;20044;-93
2022/03/21 03:41:54;;;;;;;66.50;32.00;;;2.10;99.90;;;;;;5079335;28;20043;-94
2022/03/21 03:44:20;;;;;;;62.78;31.10;;;2.00;99.90;;;;;;5113696;28;20056;-92
2022/03/21 03:46:46;;;;;;;66.72;32.78;;;1.90;99.90;;;;;;5095951;28;20126;-93
2022/03/21 03:49:11;;;;;;;70.75;32.33;;;1.80;99.90;;;;;;5096474;28;20046;-93
2022/03/21 03:51:37;;;;;;;62.78;30.92;;;1.80;99.90;;;;;;5096116;28;20047;-93
2022/03/21 03:54:03;;;;;;;62.80;30.13;;;1.70;99.90;;;;;;5096099;28;20051;-93
2022/03/21 03:56:29;;;;;;;62.00;29.67;;;1.60;99.90;;;;;;5078868;28;20051;-93
2022/03/21 03:58:54;;;;;;;69.72;31.25;;;1.60;99.90;;;;;;5113787;28;20050;-94
2022/03/21 04:01:20;;;;;;;58.65;29.05;;;1.50;99.90;;;;;;5078821;28;20066;-93
2022/03/21 04:03:46;;;;;;;57.38;29.10;;;1.50;99.90;;;;;;5078690;28;20066;-94
2022/03/21 04:06:17;;;;;;;64.57;30.17;;;1.40;99.90;;;;;;5081884;28;20477;-93
2022/03/21 04:08:44;;;;;;;48.95;26.95;;;1.40;99.90;;;;;;5099890;28;20039;-94
2022/03/21 04:11:10;;;;;;;76.93;29.70;;;1.40;99.90;;;;;;5099712;28;20044;-93
2022/03/21 04:13:36;;;;;;;56.47;27.30;;;1.30;99.90;;;;;;5082923;28;20345;-93
2022/03/21 04:16:02;;;;;;;74.07;29.45;;;1.30;99.90;;;;;;5082803;28;20047;-93
2022/03/21 04:18:28;;;;;;;64.30;27.52;;;1.30;99.90;;;;;;5099902;28;20048;-93
2022/03/21 04:20:53;;;;;;;57.85;26.15;;;1.20;99.90;;;;;;5099857;28;20515;-93
2022/03/21 04:23:19;;;;;;;48.92;25.23;;;1.20;99.90;;;;;;5099680;28;20857;-93
2022/03/21 04:25:46;;;;;;;65.90;28.35;;;1.20;99.90;;;;;;5082969;28;20107;-93
2022/03/21 04:28:14;;;;;;;74.25;28.52;;;1.10;99.90;;;;;;5099673;28;20044;-93
2022/03/21 04:30:41;;;;;;;76.15;28.45;;;1.20;99.90;;;;;;5099441;28;20050;-92
2022/03/21 04:33:10;;;;;;;63.75;25.58;;;1.20;99.90;;;;;;5083044;28;20058;-93
2022/03/21 04:35:37;;;;;;;57.55;26.75;;;1.20;99.90;;;;;;5099607;28;20047;-93
2022/03/21 04:38:03;;;;;;;66.40;26.17;;;1.20;99.90;;;;;;5082710;28;20438;-93
2022/03/21 04:40:29;;;;;;;44.35;22.45;;;1.20;99.90;;;;;;5099531;28;20130;-93
2022/03/21 04:42:55;;;;;;;57.13;24.55;;;1.20;99.90;;;;;;5099374;28;20047;-93
2022/03/21 04:45:21;;;;;;;78.38;26.38;;;1.20;99.90;;;;;;5082003;28;20551;-93
2022/03/21 04:47:47;;;;;;;66.70;25.13;;;1.20;99.90;;;;;;5117038;28;20450;-93
2022/03/21 04:50:13;;;;;;;47.38;23.73;;;1.00;99.90;;;;;;5099450;28;20076;-93
2022/03/21 04:52:39;;;;;;;38.85;21.67;;;1.00;99.90;;;;;;5082192;28;20035;-92
2022/03/21 04:55:07;;;;;;;47.15;21.70;;;0.90;99.90;;;;;;5117337;28;20040;-93
2022/03/21 04:57:35;;;;;;;49.75;23.02;;;0.90;99.90;;;;;;5099151;28;20043;-93
2022/03/21 05:00:03;;;;;;;50.95;22.17;;;0.90;99.90;;;;;;5116938;28;20408;-93
2022/03/21 05:02:28;;;;;;;53.10;22.38;;;0.80;99.90;;;;;;5099286;28;20052;-93
2022/03/21 05:04:54;;;;;;;43.67;20.20;;;0.70;99.90;;;;;;5082339;28;20074;-93
2022/03/21 05:07:20;;;;;;;50.67;21.27;;;0.70;99.90;;;;;;5081561;28;20051;-93
2022/03/21 05:09:47;;;;;;;52.95;21.65;;;0.60;99.90;;;;;;5099151;28;20040;-93
2022/03/21 05:12:14;;;;;;;38.40;20.90;;;0.60;99.90;;;;;;5082006;28;20050;-94
2022/03/21 05:14:40;;;;;;;47.75;22.30;;;0.50;99.90;;;;;;5081738;28;20086;-93
2022/03/21 05:17:05;;;;;;;61.35;23.48;;;0.50;99.90;;;;;;5080080;28;20039;-93
2022/03/21 05:19:35;;;;;;;62.08;24.23;;;0.40;99.90;;;;;;5099064;28;20500;-93
2022/03/21 05:22:02;;;;;;;61.00;24.05;;;0.40;99.90;;;;;;5080711;28;20104;-93
2022/03/21 05:32:41;;;;;;;38.72;20.17;;;0.30;99.90;;;;;;5098205;28;20070;-93
2022/03/21 05:37:51;;;;;;;45.80;20.95;;;0.20;99.90;;;;;;5097907;28;20047;-93
2022/03/21 05:40:32;;;;;;;53.00;23.25;;;0.20;99.90;;;;;;5092656;28;20507;-93
2022/03/21 05:42:57;;;;;;;36.45;19.70;;;0.20;99.90;;;;;;5081252;28;20051;-92
2022/03/21 05:45:24;;;;;;;60.50;23.02;;;0.10;99.90;;;;;;5097238;28;20043;-93
2022/03/21 05:50:36;;;;;;;50.58;21.80;;;0.10;99.90;;;;;;5097547;28;20050;-93
2022/03/21 05:53:03;;;;;;;47.65;22.27;;;0.10;99.90;;;;;;5081295;28;20113;-93
2022/03/21 05:55:30;;;;;;;72.65;24.17;;;0.10;99.90;;;;;;5067532;28;20515;-94
2022/03/21 05:57:57;;;;;;;59.30;24.30;;;0.10;99.90;;;;;;5095947;28;20047;-93
2022/03/21 06:00:23;;;;;;;51.55;23.60;;;0.10;99.90;;;;;;5097606;28;20180;-93
2022/03/21 06:02:51;;;;;;;58.75;24.63;;;0.10;99.90;;;;;;5115487;28;20042;-93
2022/03/21 06:05:18;;;;;;;50.03;22.00;;;0.20;99.90;;;;;;5097544;28;20043;-94
2022/03/21 06:07:45;;;;;;;44.15;22.45;;;0.40;99.90;;;;;;5081219;28;20614;-93
2022/03/21 06:10:14;;;;;;;53.75;22.60;;;0.30;99.90;;;;;;5081267;28;20092;-93
2022/03/21 06:12:40;;;;;;;54.00;24.20;;;0.60;99.90;;;;;;5097594;28;20079;-93
2022/03/21 06:15:07;;;;;;;58.42;24.20;;;0.40;99.90;;;;;;5081001;28;20634;-94
2022/03/21 06:17:40;;;;;;;45.92;22.80;;;0.50;99.90;;;;;;5080661;28;20043;-94
2022/03/21 06:20:08;;;;;;;52.80;25.50;;;0.50;99.90;;;;;;5080513;28;20109;-94
2022/03/21 06:22:34;;;;;;;37.05;20.33;;;0.50;99.90;;;;;;5097727;28;20545;-94
2022/03/21 06:24:59;;;;;;;44.55;21.55;;;0.60;99.90;;;;;;5080921;28;20047;-94
2022/03/21 06:27:25;;;;;;;43.58;24.08;;;0.60;99.90;;;;;;5080616;28;20050;-93
2022/03/21 06:29:51;;;;;;;47.70;23.60;;;0.60;99.90;;;;;;5115354;28;20500;-94
2022/03/21 06:32:17;;;;;;;45.90;23.58;;;0.70;99.90;;;;;;5097507;28;20132;-94
2022/03/21 06:34:42;;;;;;;41.70;21.38;;;0.70;99.90;;;;;;5096760;28;20046;-93
2022/03/21 06:37:08;;;;;;;35.75;20.67;;;0.80;99.90;;;;;;5080549;28;20043;-93
2022/03/21 06:39:34;;;;;;;41.70;20.73;;;0.80;99.90;;;;;;5063595;28;20043;-94
2022/03/21 06:42:00;;;;;;;46.30;22.33;;;0.90;99.90;;;;;;5115009;28;20055;-93
2022/03/21 06:44:25;;;;;;;47.03;23.58;;;1.00;99.90;;;;;;5080219;28;20048;-93
2022/03/21 06:46:51;;;;;;;34.55;20.70;;;1.10;99.90;;;;;;5096852;28;20051;-93
2022/03/21 06:49:17;;;;;;;64.25;26.92;;;1.20;99.90;;;;;;5096959;28;20043;-93
2022/03/21 06:51:42;;;;;;;50.40;25.60;;;1.30;99.90;;;;;;5080016;28;20047;-93
2022/03/21 06:54:08;;;;;;;63.60;28.45;;;1.40;99.90;;;;;;5080103;28;20062;-92
2022/03/21 06:56:34;;;;;;;51.30;24.23;;;1.50;99.90;;;;;;5096781;28;20083;-93
2022/03/21 06:58:59;;;;;;;50.38;26.23;;;1.70;99.90;;;;;;5097064;28;20051;-94
2022/03/21 07:01:25;;;;;;;67.20;29.13;;;1.90;99.90;;;;;;5079842;28;20067;-94
2022/03/21 07:03:51;;;;;;;62.70;29.35;;;2.00;99.90;;;;;;5080013;28;20047;-93
2022/03/21 07:06:17;;;;;;;60.35;30.08;;;2.20;99.90;;;;;;5096264;28;20524;-94
2022/03/21 07:08:51;;;;;;;67.10;32.38;;;2.40;99.90;;;;;;5096861;28;20122;-93
2022/03/21 07:11:18;;;;;;;68.28;32.35;;;2.60;99.90;;;;;;5096497;28;20051;-94
2022/03/21 07:13:43;;;;;;;59.53;29.67;;;2.80;99.90;;;;;;5114458;28;20079;-95
2022/03/21 07:16:15;;;;;;;74.28;32.08;;;3.20;99.90;;;;;;5096225;28;20082;-93
2022/03/21 07:18:44;;;;;;;63.38;29.90;;;3.40;99.90;;;;;;5096409;28;20057;-94
2022/03/21 07:21:10;;;;;;;64.97;30.92;;;3.80;99.90;;;;;;5096898;28;20052;-94
2022/03/21 07:23:35;;;;;;;56.63;29.55;;;3.80;99.90;;;;;;5079693;28;20401;-94
2022/03/21 07:26:02;;;;;;;58.80;30.08;;;4.20;99.90;;;;;;5079755;28;20120;-94
2022/03/21 07:28:28;;;;;;;53.30;29.33;;;4.10;99.90;;;;;;5096402;28;20461;-94
2022/03/21 07:30:54;;;;;;;51.05;27.63;;;4.30;99.90;;;;;;5096902;28;20096;-93
2022/03/21 07:33:20;;;;;;;50.80;28.48;;;4.40;99.90;;;;;;5099418;28;20125;-94
2022/03/21 07:35:46;;;;;;;53.47;28.80;;;4.70;99.90;;;;;;5079684;28;20059;-94
2022/03/21 07:38:13;;;;;;;47.42;26.63;;;4.60;99.90;;;;;;5079987;28;20043;-94
2022/03/21 07:40:39;;;;;;;44.60;25.83;;;4.80;99.90;;;;;;5114401;28;20047;-91
2022/03/21 07:43:05;;;;;;;45.42;26.45;;;4.90;99.90;;;;;;5099773;28;20051;-94
2022/03/21 07:48:14;;;;;;;42.72;25.73;;;5.10;99.90;;;;;;5119338;28;20051;-93
2022/03/21 07:50:43;;;;;;;42.33;25.48;;;5.30;99.90;;;;;;5107016;27;20086;-94
2022/03/21 07:53:09;;;;;;;44.17;24.52;;;5.40;99.90;;;;;;5126373;28;20051;-91
2022/03/21 07:55:35;;;;;;;44.70;25.15;;;5.50;99.90;;;;;;5126775;28;20054;-93
2022/03/21 07:58:01;;;;;;;34.75;22.67;;;5.70;99.90;;;;;;5109268;28;20055;-94
2022/03/21 08:00:28;;;;;;;39.58;23.40;;;5.80;99.90;;;;;;5111702;28;20047;-93
2022/03/21 08:02:54;;;;;;;40.67;23.05;;;5.90;99.90;;;;;;5110386;28;20106;-94
2022/03/21 08:05:19;;;;;;;37.45;22.40;;;6.00;99.90;;;;;;5145496;28;20039;-94
2022/03/21 08:07:45;;;;;;;33.65;20.73;;;6.10;99.90;;;;;;5129476;28;20086;-95
2022/03/21 08:10:11;;;;;;;37.67;22.17;;;6.30;99.90;;;;;;5128660;28;20072;-94
2022/03/21 08:12:42;;;;;;;30.63;18.73;;;6.40;99.90;;;;;;5111212;28;20047;-93
2022/03/21 08:15:11;;;;;;;30.55;18.50;;;6.50;99.90;;;;;;5109089;28;20086;-94
2022/03/21 08:18:03;;;;;;;33.30;18.25;;;6.60;99.90;;;;;;5105414;28;20051;-96
2022/03/21 08:20:33;;;;;;;26.63;18.60;;;6.70;99.90;;;;;;5101994;28;20055;-94
2022/03/21 08:23:05;;;;;;;34.33;18.45;;;6.80;99.90;;;;;;5101708;28;20054;-94
2022/03/21 08:25:32;;;;;;;30.67;17.40;;;6.90;99.90;;;;;;5118833;28;20054;-93
2022/03/21 08:27:58;;;;;;;34.25;18.95;;;7.00;99.90;;;;;;5118277;28;20468;-94
2022/03/21 08:30:24;;;;;;;28.02;16.73;;;7.10;99.90;;;;;;5101147;28;20088;-94
2022/03/21 08:32:50;;;;;;;30.70;16.90;;;7.30;99.90;;;;;;5120477;28;20043;-95
2022/03/21 08:35:20;;;;;;;26.58;15.75;;;7.50;99.90;;;;;;5119001;28;20370;-93
2022/03/21 08:37:48;;;;;;;28.15;16.85;;;7.60;99.90;;;;;;5118087;28;20062;-95
2022/03/21 08:40:15;;;;;;;23.60;15.30;;;7.90;99.90;;;;;;5102055;28;20043;-95
2022/03/21 08:42:41;;;;;;;25.20;15.25;;;7.90;99.90;;;;;;5101614;28;20046;-94
2022/03/21 08:45:07;;;;;;;25.52;14.38;;;8.20;99.90;;;;;;5118457;28;20115;-95
2022/03/21 08:47:34;;;;;;;28.38;16.38;;;8.20;99.90;;;;;;5102190;28;20051;-93
2022/03/21 08:50:01;;;;;;;24.73;15.50;;;8.30;99.90;;;;;;5115214;28;20043;-95
2022/03/21 08:52:27;;;;;;;24.52;14.55;;;8.50;99.90;;;;;;5142909;27;20106;-93
2022/03/21 08:54:53;;;;;;;25.67;15.10;;;8.70;99.90;;;;;;5142650;27;20031;-94
2022/03/21 08:57:18;;;;;;;21.63;14.25;;;8.90;99.90;;;;;;5106358;27;20092;-95
2022/03/21 08:59:46;;;;;;;24.75;15.27;;;9.10;99.90;;;;;;5105018;27;20127;-94
2022/03/21 09:02:13;;;;;;;23.88;14.52;;;9.30;99.90;;;;;;5123762;27;20088;-95
2022/03/21 09:04:39;;;;;;;22.55;14.43;;;10.00;99.90;;;;;;5105459;27;20478;-95
2022/03/21 09:07:05;;;;;;;22.88;14.13;;;11.20;99.90;;;;;;5104459;27;20148;-96
2022/03/21 09:09:31;;;;;;;22.60;14.07;;;12.70;99.90;;;;;;5104566;27;20089;-96
2022/03/21 09:11:57;;;;;;;19.92;13.43;;;14.20;99.90;;;;;;5121040;27;20043;-96
2022/03/21 09:14:23;;;;;;;19.30;13.15;;;15.10;99.90;;;;;;5103968;27;20446;-96
2022/03/21 09:16:50;;;;;;;22.35;13.30;;;16.00;99.90;;;;;;5104656;27;20065;-96
2022/03/21 09:19:16;;;;;;;18.90;12.77;;;16.60;99.90;;;;;;5121319;27;20043;-92
2022/03/21 09:21:43;;;;;;;22.17;14.38;;;17.20;99.90;;;;;;5104810;27;20150;-96
2022/03/21 09:24:11;;;;;;;17.48;13.52;;;17.60;99.90;;;;;;5105815;27;20086;-96
2022/03/21 09:26:37;;;;;;;19.33;13.48;;;17.80;99.90;;;;;;5104944;27;20051;-95
2022/03/21 09:29:04;;;;;;;20.70;14.02;;;18.10;99.90;;;;;;5120697;27;20133;-96
2022/03/21 09:31:32;;;;;;;23.85;14.32;;;18.80;98.90;;;;;;5105379;27;20043;-96
2022/03/21 09:33:57;;;;;;;22.85;15.07;;;19.30;95.20;;;;;;5103802;27;20055;-96
2022/03/21 09:36:24;;;;;;;23.13;15.05;;;19.50;91.40;;;;;;5120976;27;20199;-94
2022/03/21 09:38:49;;;;;;;24.40;16.10;;;19.70;85.90;;;;;;5120594;27;20047;-96
2022/03/21 09:41:22;;;;;;;23.70;16.05;;;19.80;77.80;;;;;;5120907;27;20134;-96
2022/03/21 09:43:52;;;;;;;25.08;16.75;;;19.90;76.10;;;;;;5104884;27;20043;-96
2022/03/21 09:46:20;;;;;;;19.83;16.27;;;20.00;67.80;;;;;;5105039;27;20059;-96
2022/03/21 09:48:52;;;;;;;22.98;17.20;;;20.10;72.10;;;;;;5104593;27;20081;-94
2022/03/21 09:51:22;;;;;;;23.80;16.58;;;20.30;65.70;;;;;;5104932;27;20054;-94
2022/03/21 09:53:49;;;;;;;21.30;16.40;;;20.70;67.00;;;;;;5104022;27;20035;-96
2022/03/21 09:56:16;;;;;;;26.67;16.73;;;20.80;66.30;;;;;;5104418;27;20377;-94
2022/03/21 09:58:43;;;;;;;23.10;17.05;;;21.00;64.10;;;;;;5104614;27;20130;-95
2022/03/21 10:01:11;;;;;;;23.92;18.67;;;21.30;61.70;;;;;;5103186;27;20047;-93
2022/03/21 10:03:38;;;;;;;25.65;17.42;;;21.50;58.20;;;;;;5138878;27;20488;-93
2022/03/21 10:06:34;;;;;;;23.77;17.13;;;21.50;58.00;;;;;;5104308;27;20050;-93
2022/03/21 10:09:19;;;;;;;25.60;17.33;;;21.60;56.30;;;;;;5104325;27;20115;-94
2022/03/21 10:12:00;;;;;;;28.73;18.48;;;22.00;54.00;;;;;;5106402;27;20057;-95
2022/03/21 10:14:36;;;;;;;27.33;17.75;;;22.10;51.80;;;;;;5104850;27;20047;-94
2022/03/21 10:17:15;;;;;;;25.13;17.73;;;22.10;52.60;;;;;;5103681;27;20046;-94
2022/03/21 10:19:52;;;;;;;26.45;18.13;;;22.20;51.90;;;;;;5120243;27;20061;-94
2022/03/21 10:22:34;;;;;;;24.42;17.67;;;22.70;51.20;;;;;;5103670;27;20047;-95
2022/03/21 10:25:08;;;;;;;23.27;16.88;;;23.00;51.50;;;;;;5102371;27;20130;-94
2022/03/21 10:27:39;;;;;;;26.52;17.85;;;23.30;51.30;;;;;;5118737;27;20054;-94
2022/03/21 10:30:10;;;;;;;23.27;16.48;;;23.60;50.10;;;;;;5101457;27;20039;-94
2022/03/21 10:32:53;;;;;;;22.83;16.75;;;23.80;50.00;;;;;;5119615;27;20068;-95
2022/03/21 10:35:28;;;;;;;35.10;18.90;;;24.20;49.10;;;;;;5102151;27;20046;-95
2022/03/21 10:37:58;;;;;;;30.00;18.45;;;24.60;45.40;;;;;;5104172;27;20103;-94
2022/03/21 10:40:30;;;;;;;28.17;17.77;;;24.30;45.10;;;;;;5102628;27;20536;-94
2022/03/21 10:42:56;;;;;;;24.77;17.92;;;24.20;45.80;;;;;;5120969;27;20434;-94
2022/03/21 10:45:41;;;;;;;23.33;17.52;;;24.40;46.40;;;;;;5102769;27;20130;-94
2022/03/21 10:48:10;;;;;;;26.77;18.02;;;24.60;45.80;;;;;;5120270;27;20054;-95
2022/03/21 10:50:42;;;;;;;25.48;17.10;;;24.80;45.70;;;;;;5119729;27;20497;-93
2022/03/21 10:53:23;;;;;;;25.23;18.02;;;24.90;45.40;;;;;;5119584;27;20381;-94
2022/03/21 10:56:04;;;;;;;26.33;17.83;;;24.90;43.60;;;;;;5119616;27;20096;-94
2022/03/21 10:58:42;;;;;;;26.38;17.92;;;24.70;41.70;;;;;;5104426;27;20121;-95
2022/03/21 11:01:25;;;;;;;26.23;18.67;;;24.40;40.90;;;;;;5118584;27;20400;-94
2022/03/21 11:03:56;;;;;;;28.75;18.20;;;24.00;42.70;;;;;;5118909;27;20092;-94
2022/03/21 11:06:23;;;;;;;25.50;17.80;;;24.10;44.60;;;;;;5119845;27;20051;-96
2022/03/21 11:08:52;;;;;;;29.65;18.38;;;24.60;42.80;;;;;;5102704;27;20127;-93
2022/03/21 11:11:19;;;;;;;23.30;18.00;;;24.90;43.50;;;;;;5102194;27;20055;-94
2022/03/21 11:13:45;;;;;;;26.52;18.08;;;25.20;42.60;;;;;;5098350;28;20040;-93
2022/03/21 11:16:16;;;;;;;28.88;18.58;;;25.50;42.30;;;;;;5097902;28;20040;-95
2022/03/21 11:18:44;;;;;;;24.38;18.85;;;25.90;41.10;;;;;;5080819;28;20059;-92
2022/03/21 11:21:11;;;;;;;25.92;18.92;;;25.70;41.00;;;;;;5097765;28;20104;-92
2022/03/21 11:23:37;;;;;;;29.60;19.02;;;25.50;41.50;;;;;;5081694;28;20043;-92
2022/03/21 11:26:33;;;;;;;25.35;18.52;;;25.60;42.30;;;;;;5082018;28;20051;-92
2022/03/21 11:29:17;;;;;;;28.88;18.02;;;25.90;41.30;;;;;;5097311;28;20043;-92
2022/03/21 11:32:03;;;;;;;23.80;18.20;;;26.10;42.30;;;;;;5097428;28;20035;-93
2022/03/21 11:35:01;;;;;;;26.08;18.85;;;26.20;41.40;;;;;;5080629;28;20144;-94
2022/03/21 11:37:30;;;;;;;22.63;17.42;;;26.20;39.80;;;;;;5097621;28;20131;-92
2022/03/21 11:40:34;;;;;;;27.60;19.15;;;26.30;42.10;;;;;;5097721;28;20047;-92
2022/03/21 11:43:18;;;;;;;25.33;18.60;;;26.60;41.40;;;;;;5098630;28;20054;-93
2022/03/21 11:45:45;;;;;;;29.30;18.83;;;26.80;39.00;;;;;;5081084;28;20115;-94
2022/03/21 11:48:22;;;;;;;27.90;18.58;;;26.60;39.90;;;;;;5083016;28;20496;-93
2022/03/21 11:51:13;;;;;;;32.20;19.02;;;26.50;38.90;;;;;;5098831;28;20085;-93
2022/03/21 11:53:50;;;;;;;23.95;18.38;;;26.30;39.70;;;;;;5082531;28;20039;-93
2022/03/21 11:56:41;;;;;;;26.50;18.35;;;26.40;40.60;;;;;;5081535;28;20043;-94
2022/03/21 11:59:08;;;;;;;29.05;19.42;;;26.60;39.40;;;;;;5081099;28;20472;-93
2022/03/21 12:01:34;;;;;;;25.95;18.63;;;26.90;39.30;;;;;;5098090;28;20074;-92
2022/03/21 12:04:24;;;;;;;32.50;19.15;;;27.00;39.40;;;;;;5098274;28;20307;-92
2022/03/21 12:06:50;;;;;;;;;;;27.10;38.70;;;;;;5097997;28;20051;-91
2022/03/21 12:09:16;;;;;;;22.33;17.30;;;27.40;36.50;;;;;;5081365;28;19920;-92
2022/03/21 12:11:42;;;;;;;25.27;19.00;;;27.30;39.90;;;;;;5097868;28;20924;-92
2022/03/21 12:14:44;;;;;;;31.02;19.33;;;27.30;38.60;;;;;;5080696;28;20044;-93
2022/03/21 12:17:12;;;;;;;26.98;18.70;;;27.50;37.40;;;;;;5096023;28;20043;-93
2022/03/21 12:20:02;;;;;;;26.52;17.60;;;27.80;37.70;;;;;;5096463;28;20043;-94
2022/03/21 12:22:33;;;;;;;25.17;17.92;;;27.90;37.10;;;;;;5080031;28;20039;-93
2022/03/21 12:25:05;;;;;;;23.50;17.50;;;27.90;36.60;;;;;;5078712;28;20086;-92
2022/03/21 12:27:44;;;;;;;24.88;17.38;;;27.80;36.80;;;;;;5098532;28;20043;-92
2022/03/21 12:30:19;;;;;;;23.77;16.55;;;27.60;37.10;;;;;;5082327;28;20043;-90
2022/03/21 12:32:55;;;;;;;24.40;17.63;;;27.80;35.40;;;;;;5100420;28;20087;-91
2022/03/21 12:35:35;;;;;;;26.13;16.75;;;27.90;35.80;;;;;;5099413;28;20047;-90
2022/03/21 12:38:14;;;;;;;24.13;16.83;;;27.90;35.10;;;;;;5099516;28;20515;-91
2022/03/21 12:41:03;;;;;;;24.75;17.80;;;27.90;36.50;;;;;;5099180;28;20055;-91
2022/03/21 12:43:42;;;;;;;23.48;17.50;;;28.10;36.20;;;;;;5100203;28;20055;-91
2022/03/21 12:46:18;;;;;;;31.33;18.30;;;28.20;35.30;;;;;;5098836;28;20060;-90
2022/03/21 12:48:52;;;;;;;25.67;17.13;;;28.30;36.20;;;;;;5109892;28;20039;-89
2022/03/21 12:51:33;;;;;;;25.17;18.83;;;28.20;36.10;;;;;;5106766;28;20055;-88
2022/03/21 12:54:04;;;;;;;25.08;17.50;;;28.40;35.30;;;;;;5124128;28;20024;-89
2022/03/21 12:56:30;;;;;;;22.50;16.60;;;28.60;34.90;;;;;;5101652;28;20039;-90
2022/03/21 12:59:07;;;;;;;21.45;16.40;;;28.60;34.70;;;;;;5083126;28;20066;-90
2022/03/21 13:01:34;;;;;;;22.35;16.27;;;28.00;34.40;;;;;;5083497;28;20040;-91